Search for airport 
image banner adimage banner adimage banner ad
image banner ad

22CL - Double Tree Farm

Located in Marysville, United States

ICAO - 22CL, IATA -

Data provided by Airmate  

General information

Coordinates: N39°17'60" W121°21'34"
Elevation is 550 feet MSL.
Magnetic variation is 16° East
View others Airports in California

Operational data

Special qualification required
Current time UTC:
Current local time:
Weather at : KBAB - Beale Afb ( 19 km )
METAR: KBAB 212258Z AUTO 26003KT 10SM CLR 34/07 A3002 RMK AO2 SLP168 T03440066 $
TAF: TAF KBAB 211900Z 2119/2301 VRB06KT 9999 SKC QNH2998INS BECMG 2204/2205 09006KT 9999 SKC QNH3001INS BECMG 2217/2218 19009KT 9999 SKC QNH2992INS TX35/2123Z TN16/2214Z
View NOTAMs / SUP AIP / TFR affecting this airport [VIEW]
Communications frequencies: [VIEW]

Runways:

RWY identifierQFULength (ft)Width (ft)SurfaceLDA (ft)
13160020GRAVEL
31160020GRAVEL

Airport contact information

Address: Marysville United States

Satellite view of 22CL